createdAt,value
2018-08-20T00:00:08.026Z,78.3
2018-08-20T00:05:03.275Z,91.1
2018-08-20T00:10:05.616Z,91
2018-08-20T00:15:05.929Z,90.7
2018-08-20T00:20:05.876Z,90.2
2018-08-20T00:25:02.738Z,90.2
2018-08-20T00:30:03.040Z,90.1
2018-08-20T00:35:05.945Z,88.7
2018-08-20T00:40:02.772Z,88.5
2018-08-20T00:45:05.654Z,87.6
2018-08-20T00:50:02.992Z,87.6
2018-08-20T00:55:03.409Z,86.3
2018-08-20T01:00:07.903Z,85.4
2018-08-20T01:05:05.647Z,84.9
2018-08-20T01:10:11.037Z,85
2018-08-20T01:15:07.918Z,85.1
2018-08-20T01:20:03.330Z,85.1
2018-08-20T01:25:05.227Z,86.4
2018-08-20T01:30:05.144Z,86.6
2018-08-20T01:35:02.902Z,86.5
2018-08-20T01:40:05.276Z,85.8
2018-08-20T01:45:08.265Z,86.6
2018-08-20T01:50:02.663Z,86.6
2018-08-20T01:55:05.527Z,85.4
2018-08-20T02:00:07.978Z,85.5
2018-08-20T02:05:08.386Z,85.6
2018-08-20T02:10:03.297Z,85.6
2018-08-20T02:15:02.637Z,85.7
2018-08-20T02:20:03.064Z,86
2018-08-20T02:25:08.441Z,86.7
2018-08-20T02:30:05.282Z,87.5
2018-08-20T02:35:05.661Z,87.8
2018-08-20T02:40:03.548Z,87.7
2018-08-20T02:45:02.969Z,88.5
2018-08-20T02:50:05.908Z,89.1
2018-08-20T02:55:05.322Z,88.8
2018-08-20T03:00:02.756Z,88.7
2018-08-20T03:05:05.691Z,89.3
2018-08-20T03:10:05.994Z,89
2018-08-20T03:15:05.397Z,89.1
2018-08-20T03:20:05.446Z,90
2018-08-20T03:25:05.705Z,90
2018-08-20T03:30:08.158Z,89.8
2018-08-20T03:35:08.555Z,90.1
2018-08-20T03:40:05.895Z,90.3
2018-08-20T03:45:02.728Z,90.3
2018-08-20T03:50:05.551Z,90.1
2018-08-20T03:55:05.952Z,90
2018-08-20T04:00:05.896Z,90.4
2018-08-20T04:05:12.846Z,90.6
2018-08-20T04:10:25.433Z,90.8
2018-08-20T04:15:07.892Z,90.9
2018-08-20T04:20:03.264Z,90.9
2018-08-20T04:25:17.788Z,91.5
2018-08-20T04:30:25.940Z,92
2018-08-20T04:35:03.353Z,92
2018-08-20T04:40:03.359Z,92.3
2018-08-20T04:45:05.500Z,92.8
2018-08-20T04:50:05.790Z,92.6
2018-08-20T04:55:03.249Z,92.6
2018-08-20T05:00:05.139Z,93.4
2018-08-20T05:05:02.980Z,93.4
2018-08-20T05:10:03.128Z,93.2
2018-08-20T05:15:03.024Z,93.5
2018-08-20T05:20:28.793Z,93
2018-08-20T05:25:05.627Z,92.6
2018-08-20T05:30:07.940Z,92.1
2018-08-20T05:35:03.274Z,92.1
2018-08-20T05:40:03.167Z,92.1
2018-08-20T05:45:03.405Z,91.4
2018-08-20T05:50:05.355Z,90.9
2018-08-20T05:55:03.244Z,90.9
2018-08-20T06:00:05.169Z,90.8
2018-08-20T06:05:07.998Z,90.4
2018-08-20T06:10:05.316Z,90.8
2018-08-20T06:15:05.726Z,90.3
2018-08-20T06:20:08.238Z,89.7
2018-08-20T06:25:03.701Z,89.6
2018-08-20T06:30:08.534Z,87.9
2018-08-20T06:35:10.432Z,87.2
2018-08-20T06:40:03.245Z,87.1
2018-08-20T06:45:07.630Z,87.6
2018-08-20T06:50:05.470Z,87.7
2018-08-20T06:55:03.317Z,87.8
2018-08-20T07:00:12.822Z,86.7
2018-08-20T07:05:05.611Z,86.6
2018-08-20T07:10:07.649Z,85.8
2018-08-20T07:15:08.177Z,86.3
2018-08-20T07:20:02.632Z,86.4
2018-08-20T07:25:03.098Z,87.3
2018-08-20T07:30:11.015Z,84.4
2018-08-20T07:35:05.358Z,85.4
2018-08-20T07:40:05.754Z,86.1
2018-08-20T07:45:15.280Z,86.5
2018-08-20T07:50:02.626Z,86.5
2018-08-20T07:55:03.068Z,86.7
2018-08-20T08:00:33.845Z,87.1
2018-08-20T08:05:05.729Z,87.7
2018-08-20T08:10:05.137Z,88.4
2018-08-20T08:15:05.686Z,89
2018-08-20T08:20:03.155Z,88.9
2018-08-20T08:25:02.572Z,88.5
2018-08-20T08:30:08.032Z,88.6
2018-08-20T08:35:03.283Z,88.6
2018-08-20T08:40:08.117Z,89
2018-08-20T08:45:05.949Z,87.6
2018-08-20T08:50:03.338Z,87.6
2018-08-20T08:55:02.768Z,87.4
2018-08-20T09:00:08.340Z,85.2
2018-08-20T09:05:08.580Z,85.9
2018-08-20T09:10:05.991Z,83.1
2018-08-20T09:15:07.911Z,82.9
2018-08-20T09:20:05.957Z,82.2
2018-08-20T09:25:02.751Z,82.2
2018-08-20T09:30:08.170Z,79.8
2018-08-20T09:35:12.825Z,79
2018-08-20T09:40:02.743Z,78.8
2018-08-20T09:45:03.162Z,80.1
2018-08-20T09:50:11.117Z,77.8
2018-08-20T09:55:05.429Z,78.2
2018-08-20T10:00:07.838Z,77.4
2018-08-20T10:05:03.223Z,77.4
2018-08-20T10:10:05.554Z,78
2018-08-20T10:15:05.928Z,78
2018-08-20T10:20:03.448Z,78.1
2018-08-20T10:25:17.995Z,79.1
2018-08-20T10:30:05.823Z,78.1
2018-08-20T10:35:05.235Z,78.9
2018-08-20T10:40:05.596Z,79
2018-08-20T10:45:08.422Z,77.7
2018-08-20T10:50:02.869Z,77.7
2018-08-20T10:55:08.259Z,76.2
2018-08-20T11:05:23.219Z,75.7
2018-08-20T11:10:11.106Z,77.3
2018-08-20T11:15:13.580Z,77.4
2018-08-20T11:20:10.729Z,77.9
2018-08-20T11:25:07.618Z,78.3
2018-08-20T11:30:05.647Z,77.7
2018-08-20T11:35:07.635Z,77.3
2018-08-20T11:40:03.529Z,77.3
2018-08-20T11:45:02.937Z,78.3
2018-08-20T11:50:05.792Z,79.7
2018-08-20T11:55:07.736Z,80
2018-08-20T12:00:03.034Z,80.1
2018-08-20T12:05:03.437Z,79.6
2018-08-20T12:10:10.989Z,79
2018-08-20T12:15:07.820Z,78.7
2018-08-20T12:20:05.806Z,78
2018-08-20T12:25:05.319Z,78.1
2018-08-20T12:30:05.396Z,78.6
2018-08-20T12:35:05.982Z,78.9
2018-08-20T12:40:05.476Z,78.8
2018-08-20T12:45:06.087Z,79.5
2018-08-20T12:50:03.468Z,79.3
2018-08-20T12:55:18.035Z,79.4
2018-08-20T13:00:03.372Z,79.6
2018-08-20T13:05:05.354Z,78.5
2018-08-20T13:10:08.251Z,78.5
2018-08-20T13:15:07.689Z,79.4
2018-08-20T13:20:03.393Z,79.2
2018-08-20T13:25:02.822Z,79.1
2018-08-20T13:30:03.266Z,79.2
2018-08-20T13:35:07.646Z,80.8
2018-08-20T13:40:03.462Z,80.8
2018-08-20T13:45:02.834Z,81.3
2018-08-20T13:50:05.944Z,85.5
2018-08-20T13:55:02.856Z,85.6
2018-08-20T14:00:05.757Z,86.9
2018-08-20T14:05:05.201Z,87.8
2018-08-20T14:10:13.233Z,87.2
2018-08-20T14:15:08.457Z,87
2018-08-20T14:20:02.943Z,87
2018-08-20T14:25:03.477Z,85.6
2018-08-20T14:30:07.927Z,84.2
2018-08-20T14:35:13.458Z,83.9
2018-08-20T14:40:05.973Z,83.5
2018-08-20T14:45:15.715Z,82.2
2018-08-20T14:50:03.088Z,82.2
2018-08-20T14:55:03.509Z,82.8
2018-08-20T15:00:02.872Z,83.9
2018-08-20T15:05:03.473Z,82.9
2018-08-20T15:10:05.938Z,84.8
2018-08-20T15:15:02.791Z,84.8
2018-08-20T15:20:03.304Z,84.9
2018-08-20T15:25:07.812Z,88.6
2018-08-20T15:30:05.815Z,90.2
2018-08-20T15:35:05.316Z,90.5
2018-08-20T15:40:05.661Z,90.3
2018-08-20T15:45:05.085Z,89.7
2018-08-20T15:50:10.337Z,89.1
2018-08-20T15:55:05.697Z,86.8
2018-08-20T16:00:03.190Z,86.8
2018-08-20T16:05:06.018Z,87.1
2018-08-20T16:10:02.815Z,87.1
2018-08-20T16:15:08.274Z,87.5
2018-08-20T16:20:05.221Z,88.6
2018-08-20T16:25:05.662Z,88.5
2018-08-20T16:30:03.077Z,88.6
2018-08-20T16:35:05.907Z,89.7
2018-08-20T16:40:05.302Z,90
2018-08-20T16:45:20.845Z,90.5
2018-08-20T16:50:08.343Z,90.6
2018-08-20T16:55:03.507Z,90.6
2018-08-20T17:00:07.957Z,90.8
2018-08-20T17:05:05.812Z,90.9
2018-08-20T17:10:07.629Z,91.2
2018-08-20T17:15:03.033Z,91.2
2018-08-20T17:20:06.098Z,91.4
2018-08-20T17:25:05.345Z,91.4
2018-08-20T17:30:02.702Z,91.4
2018-08-20T17:35:03.092Z,91.5
2018-08-20T17:40:07.978Z,91.3
2018-08-20T17:45:03.447Z,91.3
2018-08-20T17:50:02.799Z,90.3
2018-08-20T17:55:08.356Z,92.4
2018-08-20T18:00:07.850Z,92.6
2018-08-20T18:05:05.602Z,92.6
2018-08-20T18:10:06.047Z,92.8
2018-08-20T18:15:07.801Z,92.9
2018-08-20T18:20:05.713Z,93
2018-08-20T18:25:05.097Z,93.3
2018-08-20T18:30:08.561Z,93.3
2018-08-20T18:35:10.775Z,93.5
2018-08-20T18:40:02.571Z,93.5
2018-08-20T18:45:18.247Z,93.4
2018-08-20T18:50:07.670Z,93.5
2018-08-20T18:55:05.534Z,93.6
2018-08-20T19:00:05.577Z,93.8
2018-08-20T19:05:25.305Z,93.7
2018-08-20T19:10:08.217Z,93.7
2018-08-20T19:15:07.824Z,94
2018-08-20T19:20:03.264Z,94
2018-08-20T19:25:07.791Z,94
2018-08-20T19:30:10.720Z,94
2018-08-20T19:35:05.141Z,93.9
2018-08-20T19:40:10.601Z,93.8
2018-08-20T19:45:03.351Z,93.7
2018-08-20T19:50:10.340Z,93.7
2018-08-20T19:55:05.830Z,93.8
2018-08-20T20:00:08.381Z,94
2018-08-20T20:05:02.676Z,94
2018-08-20T20:10:06.042Z,93.7
2018-08-20T20:15:03.036Z,93.7
2018-08-20T20:20:06.125Z,93.7
2018-08-20T20:25:02.805Z,93.7
2018-08-20T20:35:08.475Z,94.1
2018-08-20T20:40:03.411Z,94.1
2018-08-20T20:45:05.446Z,94.2
2018-08-20T20:50:05.343Z,94.3
2018-08-20T20:55:05.747Z,94.4
2018-08-20T21:00:03.050Z,94.4
2018-08-20T21:05:11.008Z,94.4
2018-08-20T21:10:05.326Z,94.2
2018-08-20T21:15:03.198Z,94.2
2018-08-20T21:20:35.502Z,94.4
2018-08-20T21:25:23.160Z,94.2
2018-08-20T21:30:06.054Z,94
2018-08-20T21:35:05.456Z,93.9
2018-08-20T21:40:05.881Z,93.5
2018-08-20T21:45:02.673Z,93.5
2018-08-20T21:50:20.719Z,93.5
2018-08-20T21:55:05.899Z,93.2
2018-08-20T22:00:05.832Z,93.3
2018-08-20T22:05:05.206Z,92.9
2018-08-20T22:10:03.050Z,92.9
2018-08-20T22:15:03.481Z,92.8
2018-08-20T22:20:02.928Z,92.8
2018-08-20T22:25:05.902Z,92.4
2018-08-20T22:30:16.057Z,92
2018-08-20T22:35:05.243Z,91.7
2018-08-20T22:40:03.138Z,91.7
2018-08-20T22:45:22.792Z,91.4
2018-08-20T22:50:08.235Z,91.5
2018-08-20T22:55:05.973Z,91.6
2018-08-20T23:00:10.903Z,91.6
2018-08-20T23:05:02.741Z,91.7
2018-08-20T23:10:11.128Z,92.2
2018-08-20T23:15:08.052Z,92.3
2018-08-20T23:20:05.448Z,92.7
2018-08-20T23:25:05.809Z,92.4
2018-08-20T23:30:03.183Z,92.4
2018-08-20T23:35:02.687Z,92
2018-08-20T23:40:08.588Z,90.8
2018-08-20T23:45:07.924Z,90.4
2018-08-20T23:50:05.834Z,89.7
2018-08-20T23:55:05.282Z,89.6
